createdAt,value
2022-08-09T00:00:21.402Z,66.05
2022-08-09T00:02:51.436Z,65.73
2022-08-09T00:06:19.590Z,65.94
2022-08-09T00:08:11.349Z,66.12
2022-08-09T00:10:41.025Z,66.25
2022-08-09T00:13:17.414Z,66.63
2022-08-09T00:15:59.133Z,66.53
2022-08-09T00:18:34.691Z,66.52
2022-08-09T00:21:08.515Z,66.68
2022-08-09T00:23:56.330Z,66.50
2022-08-09T00:26:33.017Z,66.62
2022-08-09T00:29:02.354Z,66.84
2022-08-09T00:32:00.027Z,66.90
2022-08-09T00:34:19.199Z,67.07
2022-08-09T00:36:48.939Z,67.33
2022-08-09T00:40:09.380Z,67.37
2022-08-09T00:44:15.597Z,67.57
2022-08-09T00:44:52.228Z,67.59
2022-08-09T00:47:25.073Z,67.78
2022-08-09T00:49:55.179Z,67.78
2022-08-09T00:52:30.060Z,67.86
2022-08-09T00:55:00.932Z,68.11
2022-08-09T00:57:34.644Z,67.94
2022-08-09T01:00:21.680Z,68.05
2022-08-09T01:03:13.677Z,68.51
2022-08-09T01:05:59.599Z,68.47
2022-08-09T01:08:48.765Z,68.52
2022-08-09T01:11:39.761Z,68.50
2022-08-09T01:14:37.737Z,68.69
2022-08-09T01:17:12.280Z,68.72
2022-08-09T01:20:02.424Z,68.76
2022-08-09T01:22:35.967Z,68.81
2022-08-09T01:25:32.015Z,69.13
2022-08-09T01:28:07.403Z,68.99
2022-08-09T01:30:51.898Z,69.06
2022-08-09T01:33:25.713Z,69.07
2022-08-09T01:36:07.571Z,69.22
2022-08-09T01:38:47.068Z,69.34
2022-08-09T01:41:30.280Z,69.18
2022-08-09T01:44:04.126Z,69.44
2022-08-09T01:46:42.263Z,69.12
2022-08-09T01:49:21.065Z,69.44
2022-08-09T01:52:07.454Z,69.47
2022-08-09T01:54:44.288Z,69.91
2022-08-09T01:57:23.921Z,69.28
2022-08-09T02:00:00.110Z,69.71
2022-08-09T02:02:32.838Z,69.68
2022-08-09T02:05:15.121Z,69.73
2022-08-09T02:08:39.247Z,69.93
2022-08-09T02:10:58.999Z,69.94
2022-08-09T02:13:40.429Z,70.04
2022-08-09T02:16:11.449Z,70.31
2022-08-09T02:18:43.018Z,70.12
2022-08-09T02:21:22.045Z,70.28
2022-08-09T02:24:00.102Z,70.04
2022-08-09T02:26:33.275Z,70.24
2022-08-09T02:29:12.689Z,70.44
2022-08-09T02:31:43.612Z,70.55
2022-08-09T02:34:40.763Z,70.33
2022-08-09T02:37:14.837Z,70.52
2022-08-09T02:40:01.718Z,70.53
2022-08-09T02:42:36.868Z,70.82
2022-08-09T02:45:13.634Z,70.74
2022-08-09T02:47:57.720Z,70.77
2022-08-09T02:51:06.777Z,70.68
2022-08-09T02:53:39.986Z,71.02
2022-08-09T02:56:23.010Z,70.74
2022-08-09T02:58:51.542Z,70.86
2022-08-09T03:01:21.911Z,70.95
2022-08-09T03:04:17.193Z,70.87
2022-08-09T03:06:48.951Z,71.22
2022-08-09T03:09:17.801Z,70.64
2022-08-09T03:12:05.992Z,71.21
2022-08-09T03:14:34.228Z,70.82
2022-08-09T03:17:05.756Z,70.94
2022-08-09T03:19:58.027Z,70.84
2022-08-09T03:22:25.309Z,71.07
2022-08-09T03:25:05.942Z,71.28
2022-08-09T03:27:37.277Z,70.71
2022-08-09T03:30:29.183Z,71.05
2022-08-09T03:33:12.775Z,71.02
2022-08-09T03:36:13.172Z,71.03
2022-08-09T03:38:37.350Z,70.87
2022-08-09T03:41:09.171Z,70.97
2022-08-09T03:43:36.479Z,71.48
2022-08-09T03:46:19.848Z,71.57
2022-08-09T03:48:58.277Z,71.53
2022-08-09T03:51:54.206Z,71.43
2022-08-09T03:54:15.908Z,71.37
2022-08-09T03:56:46.540Z,71.68
2022-08-09T03:59:20.863Z,71.48
2022-08-09T04:01:59.003Z,71.63
2022-08-09T04:04:32.565Z,71.25
2022-08-09T04:07:04.163Z,71.59
2022-08-09T04:09:41.645Z,71.64
2022-08-09T04:12:29.994Z,71.88
2022-08-09T04:15:01.679Z,72.05
2022-08-09T04:17:31.335Z,71.86
2022-08-09T04:20:02.628Z,71.75
2022-08-09T04:22:31.850Z,71.88
2022-08-09T04:24:59.833Z,71.85
2022-08-09T04:27:29.285Z,71.83
2022-08-09T04:29:57.294Z,72.09
2022-08-09T04:32:37.027Z,71.99
2022-08-09T04:35:10.984Z,72.10
2022-08-09T04:37:46.055Z,72.07
2022-08-09T04:40:29.117Z,72.17
2022-08-09T04:43:02.406Z,72.24
2022-08-09T04:45:36.068Z,72.46
2022-08-09T04:48:17.785Z,72.43
2022-08-09T04:50:45.042Z,72.15
2022-08-09T04:53:13.970Z,72.16
2022-08-09T04:55:58.039Z,72.49
2022-08-09T04:58:27.967Z,72.32
2022-08-09T05:00:56.180Z,72.33
2022-08-09T05:03:40.107Z,72.30
2022-08-09T05:06:26.819Z,72.65
2022-08-09T05:09:00.667Z,72.38
2022-08-09T05:11:30.493Z,72.08
2022-08-09T05:13:59.980Z,72.53
2022-08-09T05:16:28.552Z,72.71
2022-08-09T05:19:00.223Z,72.49
2022-08-09T05:21:29.715Z,72.72
2022-08-09T05:24:01.693Z,72.43
2022-08-09T05:26:37.365Z,72.50
2022-08-09T05:29:22.107Z,72.69
2022-08-09T05:31:56.863Z,72.50
2022-08-09T05:34:32.646Z,72.63
2022-08-09T05:37:06.034Z,73.01
2022-08-09T05:39:43.289Z,72.73
2022-08-09T05:42:17.259Z,73.24
2022-08-09T05:44:51.726Z,73.15
2022-08-09T05:47:24.146Z,73.16
2022-08-09T05:50:30.291Z,72.88
2022-08-09T05:52:44.631Z,73.03
2022-08-09T05:55:22.270Z,73.26
2022-08-09T05:57:57.550Z,73.09
2022-08-09T06:00:29.172Z,72.87
2022-08-09T06:02:59.591Z,73.05
2022-08-09T06:05:50.366Z,72.91
2022-08-09T06:08:19.331Z,72.49
2022-08-09T06:10:55.439Z,72.71
2022-08-09T06:13:23.280Z,72.66
2022-08-09T06:15:52.361Z,72.06
2022-08-09T06:18:23.903Z,72.33
2022-08-09T06:20:58.334Z,72.03
2022-08-09T06:23:57.962Z,72.04
2022-08-09T06:26:22.333Z,72.14
2022-08-09T06:28:59.927Z,71.67
2022-08-09T06:31:39.336Z,71.89
2022-08-09T06:34:22.671Z,71.43
2022-08-09T06:36:58.992Z,71.42
2022-08-09T06:39:48.181Z,70.83
2022-08-09T06:42:16.517Z,70.43
2022-08-09T06:44:54.327Z,70.50
2022-08-09T06:47:22.326Z,70.01
2022-08-09T06:50:15.004Z,70.27
2022-08-09T06:52:47.275Z,69.54
2022-08-09T06:55:26.398Z,69.66
2022-08-09T06:58:02.694Z,69.56
2022-08-09T07:00:51.245Z,68.96
2022-08-09T07:03:27.882Z,68.53
2022-08-09T07:06:04.227Z,68.47
2022-08-09T07:08:33.616Z,68.21
2022-08-09T07:11:03.550Z,67.72
2022-08-09T07:13:31.235Z,67.82
2022-08-09T07:16:42.869Z,67.55
2022-08-09T07:18:59.547Z,66.83
2022-08-09T07:21:26.635Z,66.74
2022-08-09T07:23:58.521Z,66.15
2022-08-09T07:26:26.185Z,65.83
2022-08-09T07:29:09.369Z,65.64
2022-08-09T07:31:45.519Z,65.12
2022-08-09T07:34:20.966Z,64.73
2022-08-09T07:36:49.881Z,64.58
2022-08-09T07:39:20.001Z,64.22
2022-08-09T07:41:53.891Z,64.16
2022-08-09T07:44:23.975Z,63.56
2022-08-09T07:46:59.997Z,62.81
2022-08-09T07:49:28.560Z,62.85
2022-08-09T07:52:03.584Z,62.67
2022-08-09T07:54:34.281Z,61.52
2022-08-09T07:57:01.572Z,61.87
2022-08-09T07:59:45.635Z,61.24
2022-08-09T08:02:19.706Z,60.54
2022-08-09T08:04:48.598Z,60.86
2022-08-09T08:08:43.723Z,60.50
2022-08-09T08:10:08.971Z,59.91
2022-08-09T08:12:43.634Z,60.20
2022-08-09T08:15:24.242Z,59.73
2022-08-09T08:17:57.884Z,60.02
2022-08-09T08:20:32.574Z,59.37
2022-08-09T08:23:16.435Z,58.89
2022-08-09T08:25:48.397Z,58.61
2022-08-09T08:28:25.926Z,58.30
2022-08-09T08:31:10.674Z,57.63
2022-08-09T08:33:54.086Z,57.74
2022-08-09T08:36:28.893Z,57.92
2022-08-09T08:38:59.693Z,57.15
2022-08-09T08:41:50.573Z,56.96
2022-08-09T08:44:16.635Z,55.84
2022-08-09T08:47:02.654Z,55.74
2022-08-09T08:49:48.638Z,56.52
2022-08-09T08:55:07.213Z,54.18
2022-08-09T08:57:35.890Z,54.50
2022-08-09T09:00:17.132Z,54.07
2022-08-09T09:02:52.298Z,54.69
2022-08-09T09:05:33.003Z,54.06
2022-08-09T09:08:03.756Z,53.48
2022-08-09T09:10:32.145Z,52.67
2022-08-09T09:12:59.484Z,52.69
2022-08-09T09:15:38.632Z,51.75
2022-08-09T09:18:07.694Z,52.26
2022-08-09T09:20:36.533Z,51.35
2022-08-09T09:23:03.600Z,51.50
2022-08-09T09:26:00.963Z,51.95
2022-08-09T09:29:01.833Z,51.21
2022-08-09T09:32:03.586Z,50.22
2022-08-09T09:34:15.273Z,50.46
2022-08-09T09:36:51.060Z,50.37
2022-08-09T09:39:23.425Z,50.59
2022-08-09T09:41:54.284Z,50.17
2022-08-09T09:44:34.056Z,49.89
2022-08-09T09:47:16.415Z,49.59
2022-08-09T09:50:13.797Z,48.50
2022-08-09T09:52:57.974Z,48.30
2022-08-09T09:55:32.606Z,48.28
2022-08-09T09:58:15.620Z,47.37
2022-08-09T10:00:59.578Z,47.71
2022-08-09T10:03:57.151Z,47.16
2022-08-09T10:06:46.880Z,47.23
2022-08-09T10:09:23.373Z,46.68
2022-08-09T10:12:11.826Z,47.08
2022-08-09T10:14:40.251Z,45.73
2022-08-09T10:17:40.203Z,46.01
2022-08-09T10:20:15.012Z,45.36
2022-08-09T10:22:42.580Z,45.48
2022-08-09T10:25:13.945Z,45.44
2022-08-09T10:27:56.089Z,45.09
2022-08-09T10:34:04.499Z,44.12
2022-08-09T10:36:03.151Z,44.28
2022-08-09T10:38:54.284Z,44.68
2022-08-09T10:41:20.619Z,43.85
2022-08-09T10:44:01.222Z,43.99
2022-08-09T10:48:17.494Z,43.09
2022-08-09T10:51:06.912Z,43.80
2022-08-09T10:54:06.784Z,43.22
2022-08-09T10:56:42.129Z,42.85
2022-08-09T10:59:30.812Z,43.00
2022-08-09T11:03:46.884Z,43.34
2022-08-09T11:05:25.130Z,42.77
2022-08-09T11:07:59.461Z,42.06
2022-08-09T11:10:53.334Z,42.24
2022-08-09T11:13:54.124Z,41.67
2022-08-09T11:16:36.979Z,41.64
2022-08-09T11:19:07.917Z,41.77
2022-08-09T11:22:21.530Z,42.35
2022-08-09T11:25:09.761Z,41.98
2022-08-09T11:28:09.276Z,41.92
2022-08-09T11:30:37.733Z,41.10
2022-08-09T11:33:17.742Z,41.07
2022-08-09T11:35:49.854Z,41.10
2022-08-09T11:38:32.970Z,40.95
2022-08-09T11:41:38.163Z,40.59
2022-08-09T11:44:07.827Z,40.27
2022-08-09T11:46:54.178Z,40.77
2022-08-09T11:50:56.228Z,39.67
2022-08-09T11:53:20.682Z,39.08
2022-08-09T11:55:53.837Z,39.33
2022-08-09T11:58:33.139Z,39.05
2022-08-09T12:01:08.897Z,39.05
2022-08-09T12:03:57.251Z,39.09
2022-08-09T12:06:31.991Z,38.94
2022-08-09T12:09:19.189Z,38.66
2022-08-09T12:12:12.217Z,38.49
2022-08-09T12:15:07.838Z,38.52
2022-08-09T12:17:43.320Z,39.07
2022-08-09T12:20:26.696Z,38.35
2022-08-09T12:23:03.024Z,38.59
2022-08-09T12:25:37.423Z,38.35
2022-08-09T12:29:13.972Z,38.22
2022-08-09T12:31:10.740Z,37.81
2022-08-09T12:33:58.432Z,36.86
2022-08-09T12:36:27.456Z,36.96
2022-08-09T12:39:00.506Z,36.61
2022-08-09T12:41:39.072Z,37.52
2022-08-09T12:44:12.702Z,37.26
2022-08-09T12:46:49.303Z,37.83
2022-08-09T12:49:18.300Z,37.27
2022-08-09T12:52:02.359Z,37.28
2022-08-09T12:55:00.793Z,36.21
2022-08-09T12:57:47.072Z,36.91
2022-08-09T13:00:34.462Z,36.69
2022-08-09T13:03:06.405Z,36.83
2022-08-09T13:05:52.497Z,36.33
2022-08-09T13:08:40.916Z,35.34
2022-08-09T13:11:22.743Z,35.69
2022-08-09T13:14:37.851Z,36.10
2022-08-09T13:16:52.302Z,35.91
2022-08-09T13:20:07.801Z,35.80
2022-08-09T13:22:37.824Z,34.47
2022-08-09T13:25:13.855Z,34.11
2022-08-09T13:27:54.514Z,34.32
2022-08-09T13:30:49.135Z,34.66
2022-08-09T13:33:23.575Z,33.92
2022-08-09T13:36:38.221Z,33.42
2022-08-09T13:38:55.667Z,33.78
2022-08-09T13:41:58.409Z,34.45
2022-08-09T13:44:16.428Z,34.48
2022-08-09T13:47:26.486Z,34.73
2022-08-09T13:49:37.840Z,34.69
2022-08-09T13:52:22.821Z,34.58
2022-08-09T13:55:00.682Z,34.37
2022-08-09T13:57:40.770Z,34.58
2022-08-09T14:00:15.552Z,33.84
2022-08-09T14:03:03.366Z,34.58
2022-08-09T14:05:58.911Z,34.04
2022-08-09T14:08:26.969Z,34.34
2022-08-09T14:10:55.348Z,34.66
2022-08-09T14:14:16.198Z,34.32
2022-08-09T14:16:16.027Z,33.44
2022-08-09T14:18:49.700Z,34.00
2022-08-09T14:21:21.032Z,34.45
2022-08-09T14:23:56.702Z,33.70
2022-08-09T14:26:32.609Z,33.67
2022-08-09T14:29:07.784Z,34.39
2022-08-09T14:31:54.854Z,33.53
2022-08-09T14:34:31.778Z,33.54
2022-08-09T14:37:07.436Z,33.99
2022-08-09T14:39:40.372Z,33.82
2022-08-09T14:42:31.827Z,33.73
2022-08-09T14:46:58.475Z,33.55
2022-08-09T14:47:57.046Z,32.90
2022-08-09T14:50:31.380Z,32.85
2022-08-09T14:53:10.952Z,32.51
2022-08-09T14:55:42.342Z,33.63
2022-08-09T14:58:14.816Z,32.56
2022-08-09T15:00:42.456Z,33.75
2022-08-09T15:03:10.590Z,33.02
2022-08-09T15:05:39.679Z,33.06
2022-08-09T15:08:17.553Z,33.46
2022-08-09T15:11:01.785Z,34.03
2022-08-09T15:13:48.201Z,33.40
2022-08-09T15:16:20.871Z,34.04
2022-08-09T15:18:49.348Z,33.43
2022-08-09T15:21:57.606Z,33.48
2022-08-09T15:24:12.875Z,34.01
2022-08-09T15:26:45.326Z,32.81
2022-08-09T15:30:56.164Z,33.25
2022-08-09T15:32:02.350Z,33.31
2022-08-09T15:34:32.628Z,33.82
2022-08-09T15:37:04.264Z,33.47
2022-08-09T15:39:43.686Z,33.30
2022-08-09T15:42:19.968Z,32.63
2022-08-09T15:44:49.504Z,32.48
2022-08-09T15:47:22.512Z,32.37
2022-08-09T15:50:04.191Z,32.54
2022-08-09T15:52:35.117Z,32.58
2022-08-09T15:55:05.076Z,32.98
2022-08-09T15:57:35.762Z,33.26
2022-08-09T16:00:25.385Z,32.98
2022-08-09T16:02:56.278Z,32.83
2022-08-09T16:05:47.780Z,31.87
2022-08-09T16:08:30.446Z,31.80
2022-08-09T16:11:01.512Z,31.99
2022-08-09T16:14:03.575Z,32.02
2022-08-09T16:16:20.194Z,32.13
2022-08-09T16:18:53.421Z,32.25
2022-08-09T16:21:25.931Z,31.73
2022-08-09T16:23:58.607Z,32.01
2022-08-09T16:26:34.068Z,31.86
2022-08-09T16:29:11.036Z,32.39
2022-08-09T16:32:19.794Z,32.24
2022-08-09T16:34:53.605Z,32.14
2022-08-09T16:37:52.915Z,31.98
2022-08-09T16:40:10.608Z,31.86
2022-08-09T16:42:38.719Z,31.59
2022-08-09T16:45:14.340Z,32.12
2022-08-09T16:48:40.065Z,32.27
2022-08-09T16:50:34.246Z,32.60
2022-08-09T16:53:02.769Z,31.59
2022-08-09T16:55:57.882Z,32.26
2022-08-09T16:58:18.531Z,32.41
2022-08-09T17:00:46.613Z,33.30
2022-08-09T17:03:21.892Z,33.21
2022-08-09T17:06:09.328Z,33.21
2022-08-09T17:08:58.903Z,33.17
2022-08-09T17:11:40.033Z,32.79
2022-08-09T17:14:26.602Z,33.71
2022-08-09T17:17:02.680Z,33.55
2022-08-09T17:19:46.638Z,33.73
2022-08-09T17:22:28.627Z,34.22
2022-08-09T17:25:02.667Z,33.79
2022-08-09T17:27:38.139Z,33.96
2022-08-09T17:30:14.074Z,34.04
2022-08-09T17:32:45.260Z,34.86
2022-08-09T17:35:14.880Z,34.84
2022-08-09T17:38:14.613Z,35.86
2022-08-09T17:40:34.639Z,35.45
2022-08-09T17:43:33.183Z,36.02
2022-08-09T17:46:03.612Z,36.13
2022-08-09T17:48:38.887Z,35.89
2022-08-09T17:51:19.264Z,36.48
2022-08-09T17:53:54.775Z,37.12
2022-08-09T17:56:32.463Z,37.21
2022-08-09T17:59:09.157Z,37.19
2022-08-09T18:02:06.823Z,36.99
2022-08-09T18:04:26.962Z,37.92
2022-08-09T18:06:55.640Z,38.07
2022-08-09T18:09:41.168Z,38.23
2022-08-09T18:12:19.568Z,38.75
2022-08-09T18:14:54.409Z,39.45
2022-08-09T18:18:01.526Z,40.16
2022-08-09T18:20:56.017Z,40.91
2022-08-09T18:22:59.773Z,41.49
2022-08-09T18:25:50.755Z,41.58
2022-08-09T18:30:36.132Z,41.46
2022-08-09T18:31:06.370Z,42.57
2022-08-09T18:33:34.540Z,42.48
2022-08-09T18:36:01.634Z,42.93
2022-08-09T18:38:28.957Z,43.34
2022-08-09T18:40:56.302Z,43.80
2022-08-09T18:43:24.871Z,44.21
2022-08-09T18:46:47.374Z,44.76
2022-08-09T18:48:39.115Z,45.60
2022-08-09T18:51:10.081Z,46.32
2022-08-09T18:53:59.714Z,46.58
2022-08-09T18:56:27.741Z,47.48
2022-08-09T18:58:57.103Z,47.46
2022-08-09T19:01:25.655Z,47.84
2022-08-09T19:04:06.120Z,48.03
2022-08-09T19:06:38.775Z,48.80
2022-08-09T19:09:07.341Z,48.89
2022-08-09T19:11:35.243Z,49.00
2022-08-09T19:14:07.143Z,49.25
2022-08-09T19:16:38.145Z,49.35
2022-08-09T19:19:21.508Z,49.67
2022-08-09T19:22:04.703Z,49.84
2022-08-09T19:24:39.527Z,50.39
2022-08-09T19:27:22.567Z,50.46
2022-08-09T19:30:22.608Z,50.83
2022-08-09T19:32:37.364Z,50.95
2022-08-09T19:35:05.574Z,51.24
2022-08-09T19:37:54.356Z,51.12
2022-08-09T19:40:21.250Z,51.42
2022-08-09T19:42:49.733Z,51.88
2022-08-09T19:45:17.267Z,52.34
2022-08-09T19:47:45.855Z,52.78
2022-08-09T19:50:51.450Z,52.95
2022-08-09T19:53:04.009Z,53.03
2022-08-09T19:56:02.569Z,53.38
2022-08-09T19:58:30.197Z,53.46
2022-08-09T20:00:58.323Z,53.77
2022-08-09T20:04:12.177Z,54.04
2022-08-09T20:06:23.820Z,54.34
2022-08-09T20:08:57.670Z,54.57
2022-08-09T20:11:42.794Z,54.78
2022-08-09T20:14:15.187Z,55.15
2022-08-09T20:20:35.552Z,55.85
2022-08-09T20:23:07.576Z,56.01
2022-08-09T20:25:51.486Z,56.45
2022-08-09T20:28:34.171Z,56.77
2022-08-09T20:31:13.725Z,57.08
2022-08-09T20:36:13.221Z,57.88
2022-08-09T20:41:35.145Z,58.48
2022-08-09T20:44:10.535Z,58.88
2022-08-09T20:46:42.692Z,59.48
2022-08-09T20:49:15.849Z,59.73
2022-08-09T20:51:43.928Z,60.06
2022-08-09T20:54:16.379Z,60.46
2022-08-09T20:56:47.049Z,60.65
2022-08-09T20:59:17.045Z,60.71
2022-08-09T21:01:50.379Z,61.26
2022-08-09T21:05:51.714Z,61.21
2022-08-09T21:07:13.138Z,61.41
2022-08-09T21:09:56.168Z,61.74
2022-08-09T21:15:23.881Z,62.35
2022-08-09T21:18:11.773Z,62.52
2022-08-09T21:20:54.121Z,62.54
2022-08-09T21:23:36.027Z,62.52
2022-08-09T21:26:10.068Z,62.66
2022-08-09T21:28:37.260Z,62.80
2022-08-09T21:31:16.680Z,62.86
2022-08-09T21:33:50.267Z,63.05
2022-08-09T21:36:28.897Z,63.19
2022-08-09T21:38:58.847Z,63.37
2022-08-09T21:42:04.588Z,63.51
2022-08-09T21:44:32.866Z,63.49
2022-08-09T21:47:07.917Z,63.67
2022-08-09T21:49:39.531Z,63.93
2022-08-09T21:52:17.018Z,64.23
2022-08-09T21:55:03.098Z,64.37
2022-08-09T21:57:39.635Z,64.63
2022-08-09T22:00:31.705Z,64.71
2022-08-09T22:03:04.716Z,64.73
2022-08-09T22:05:36.185Z,64.95
2022-08-09T22:08:13.791Z,65.23
2022-08-09T22:11:49.138Z,64.98
2022-08-09T22:13:36.826Z,65.11
2022-08-09T22:16:08.913Z,64.79
2022-08-09T22:18:38.522Z,65.09
2022-08-09T22:21:27.461Z,65.27
2022-08-09T22:24:16.918Z,65.02
2022-08-09T22:26:50.965Z,64.71
2022-08-09T22:29:24.061Z,64.64
2022-08-09T22:31:57.539Z,64.91
2022-08-09T22:34:28.094Z,64.92
2022-08-09T22:36:58.692Z,64.77
2022-08-09T22:39:55.928Z,64.88
2022-08-09T22:42:21.455Z,64.77
2022-08-09T22:45:00.099Z,64.87
2022-08-09T22:48:17.752Z,64.75
2022-08-09T22:50:27.006Z,65.00
2022-08-09T22:52:54.929Z,65.32
2022-08-09T22:55:39.680Z,65.07
2022-08-09T22:58:30.941Z,65.18
2022-08-09T23:01:05.614Z,65.32
2022-08-09T23:04:05.858Z,65.57
2022-08-09T23:06:32.737Z,65.75
2022-08-09T23:09:02.216Z,65.75
2022-08-09T23:11:29.187Z,65.68
2022-08-09T23:13:56.442Z,65.82
2022-08-09T23:16:23.576Z,65.81
2022-08-09T23:18:50.603Z,65.91
2022-08-09T23:21:25.322Z,66.04
2022-08-09T23:24:01.512Z,66.20
2022-08-09T23:26:35.941Z,66.24
2022-08-09T23:29:07.728Z,66.38
2022-08-09T23:31:34.929Z,66.40
2022-08-09T23:34:02.523Z,66.61
2022-08-09T23:36:30.821Z,66.17
2022-08-09T23:38:57.927Z,66.32
2022-08-09T23:41:28.271Z,66.40
2022-08-09T23:44:01.152Z,66.57
2022-08-09T23:46:32.711Z,66.49
2022-08-09T23:49:00.574Z,66.64
2022-08-09T23:51:28.589Z,66.56
2022-08-09T23:54:03.066Z,66.58
2022-08-09T23:56:51.895Z,66.90
2022-08-09T23:59:21.029Z,67.01
